Time;durP1;ratioP1;P1;durP2;ratioP2;P2;SDS_P1;SDS_P2;PMS_P1;PMS_P2;Temp;Humidity;BMP_temperature;BMP_pressure;BME280_temperature;BME280_humidity;BME280_pressure;Samples;Min_cycle;Max_cycle;Signal;HPM_P1;HPM_P2
2023/08/30 00:00:17;;;;;;;12.23;7.13;;;;;;;19.49;100.00;93687.19;4993793;28;20308;-76
2023/08/30 00:02:44;;;;;;;12.18;7.75;;;;;;;19.65;100.00;93684.69;4994151;28;20194;-76
2023/08/30 00:05:11;;;;;;;13.70;7.70;;;;;;;19.63;100.00;93681.56;4993396;28;20202;-76
2023/08/30 00:07:38;;;;;;;9.43;6.55;;;;;;;19.52;100.00;93681.66;4993959;28;20316;-77
2023/08/30 00:10:07;;;;;;;17.35;7.63;;;;;;;19.65;100.00;93694.88;4993943;28;20741;-76
2023/08/30 00:12:34;;;;;;;13.52;7.22;;;;;;;19.72;100.00;93690.09;4993833;28;20235;-76
2023/08/30 00:15:01;;;;;;;13.63;6.55;;;;;;;19.61;100.00;93691.38;4993705;28;20213;-76
2023/08/30 00:17:28;;;;;;;8.45;6.28;;;;;;;19.44;100.00;93687.59;4993494;28;20237;-77
2023/08/30 00:19:55;;;;;;;11.05;6.35;;;;;;;19.44;95.60;93690.34;4993724;28;20217;-76
2023/08/30 00:22:23;;;;;;;5.65;3.38;;;;;;;19.50;88.73;93688.75;4992622;28;20202;-76
2023/08/30 00:24:50;;;;;;;8.25;5.55;;;;;;;19.46;88.79;93686.00;4993724;28;20252;-77
2023/08/30 00:27:20;;;;;;;7.85;4.55;;;;;;;19.42;89.83;93687.22;4993332;28;20209;-76
2023/08/30 00:29:46;;;;;;;8.23;4.57;;;;;;;19.39;88.29;93688.03;4993663;28;20233;-76
2023/08/30 00:32:13;;;;;;;9.38;4.70;;;;;;;19.40;87.37;93684.13;4993562;28;20234;-76
2023/08/30 00:34:40;;;;;;;11.45;5.30;;;;;;;19.42;87.05;93687.22;4993831;28;20206;-76
2023/08/30 00:37:08;;;;;;;8.90;6.43;;;;;;;19.35;87.49;93681.78;4993527;28;20743;-75
2023/08/30 00:39:38;;;;;;;7.55;4.63;;;;;;;19.25;85.99;93675.22;4993504;28;20210;-76
2023/08/30 00:42:07;;;;;;;9.35;5.07;;;;;;;19.22;85.64;93667.78;4993396;28;20198;-75
2023/08/30 00:44:35;;;;;;;8.82;4.88;;;;;;;19.32;86.42;93696.31;4993231;28;20230;-76
2023/08/30 00:47:03;;;;;;;9.05;5.28;;;;;;;19.13;87.32;93692.94;4993420;28;20209;-77
2023/08/30 00:49:30;;;;;;;6.97;4.35;;;;;;;19.10;87.30;93702.00;4993271;28;20578;-77
2023/08/30 00:51:58;;;;;;;8.73;4.63;;;;;;;19.09;86.54;93705.94;4993251;28;20276;-78
2023/08/30 00:54:25;;;;;;;8.55;4.53;;;;;;;19.16;85.21;93705.09;4992792;28;20210;-77
2023/08/30 00:56:52;;;;;;;8.52;4.50;;;;;;;19.31;87.31;93697.50;4993455;28;20602;-76
2023/08/30 00:59:19;;;;;;;7.32;4.18;;;;;;;19.23;87.74;93685.81;4992995;28;20210;-77
2023/08/30 01:01:48;;;;;;;7.82;4.40;;;;;;;19.13;88.05;93686.69;4992940;28;20205;-77
2023/08/30 01:04:15;;;;;;;8.35;4.88;;;;;;;19.03;88.99;93676.56;4992871;28;20225;-77
2023/08/30 01:06:43;;;;;;;7.90;4.35;;;;;;;19.10;90.35;93688.28;4992779;28;20256;-77
2023/08/30 01:09:10;;;;;;;9.88;4.90;;;;;;;19.22;90.82;93699.94;4992538;28;20300;-76
2023/08/30 01:11:44;;;;;;;8.25;4.30;;;;;;;19.13;91.10;93698.44;4992648;28;20698;-77
2023/08/30 01:14:23;;;;;;;10.25;5.00;;;;;;;19.19;87.84;93707.03;4992540;28;20228;-75
2023/08/30 01:16:52;;;;;;;9.35;4.60;;;;;;;19.10;87.43;93699.25;4992673;28;20237;-75
2023/08/30 01:19:38;;;;;;;7.93;3.88;;;;;;;19.13;86.82;93709.41;4992380;28;20210;-75
2023/08/30 01:22:12;;;;;;;10.25;5.10;;;;;;;19.20;86.74;93710.56;4992663;28;20245;-75
2023/08/30 01:24:46;;;;;;;6.97;4.13;;;;;;;19.24;87.83;93720.34;4992661;28;20240;-75
2023/08/30 01:27:16;;;;;;;11.55;4.65;;;;;;;19.17;87.88;93725.88;4992506;28;20658;-74
2023/08/30 01:29:45;;;;;;;7.40;4.20;;;;;;;19.12;87.50;93718.09;4992782;28;20209;-75
2023/08/30 01:32:12;;;;;;;7.80;3.90;;;;;;;19.09;86.83;93719.66;4992190;28;20320;-75
2023/08/30 01:34:41;;;;;;;9.00;4.28;;;;;;;19.01;86.42;93715.41;4992229;28;20666;-75
2023/08/30 01:37:09;;;;;;;8.05;4.13;;;;;;;18.93;87.26;93705.66;4992196;28;20206;-75
2023/08/30 01:39:37;;;;;;;9.43;4.25;;;;;;;19.02;85.93;93714.22;4992479;28;20678;-74
2023/08/30 01:42:06;;;;;;;10.15;4.47;;;;;;;19.11;84.59;93711.81;4992546;28;20594;-74
2023/08/30 01:44:34;;;;;;;8.40;4.25;;;;;;;19.16;84.18;93714.09;4992171;28;20627;-75
2023/08/30 01:47:02;;;;;;;6.45;3.92;;;;;;;19.23;83.13;93716.03;4992447;28;20523;-75
2023/08/30 01:49:31;;;;;;;8.10;4.05;;;;;;;19.27;82.80;93713.25;4991931;28;20244;-75
2023/08/30 01:51:59;;;;;;;10.52;3.85;;;;;;;19.27;82.15;93700.28;4991927;28;20232;-75
2023/08/30 01:54:27;;;;;;;6.72;3.90;;;;;;;19.25;82.20;93705.41;4991767;28;20224;-75
2023/08/30 01:56:54;;;;;;;8.30;4.10;;;;;;;19.30;82.43;93713.22;4992137;28;20210;-75
2023/08/30 01:59:21;;;;;;;7.20;3.78;;;;;;;19.35;81.98;93714.75;4992096;28;20213;-74
2023/08/30 02:01:49;;;;;;;6.07;3.83;;;;;;;19.35;81.51;93709.25;4992030;28;20622;-75
2023/08/30 02:04:16;;;;;;;6.32;3.72;;;;;;;19.38;81.21;93702.97;4991939;28;20643;-74
2023/08/30 02:06:50;;;;;;;5.80;3.67;;;;;;;19.33;81.26;93706.13;4991996;28;20566;-75
2023/08/30 02:09:22;;;;;;;4.95;3.20;;;;;;;19.34;80.83;93697.50;4991723;28;20221;-74
2023/08/30 02:11:51;;;;;;;7.30;3.72;;;;;;;19.32;80.69;93704.56;4992043;28;20625;-74
2023/08/30 02:14:19;;;;;;;8.18;4.57;;;;;;;19.30;82.87;93701.44;4991717;28;20606;-75
2023/08/30 02:16:47;;;;;;;6.70;4.00;;;;;;;19.25;84.40;93699.16;4991387;28;20626;-75
2023/08/30 02:19:20;;;;;;;7.60;4.47;;;;;;;19.09;85.72;93705.94;4991459;28;20333;-75
2023/08/30 02:21:47;;;;;;;8.43;3.80;;;;;;;19.03;86.57;93704.78;4991581;28;20201;-75
2023/08/30 02:24:14;;;;;;;10.00;4.88;;;;;;;19.00;86.89;93700.09;4991715;28;20264;-75
2023/08/30 02:26:41;;;;;;;7.25;4.13;;;;;;;19.00;87.10;93697.34;4991918;28;20213;-75
2023/08/30 02:29:08;;;;;;;8.32;4.45;;;;;;;18.94;87.61;93699.00;4992030;28;20284;-75
2023/08/30 02:31:35;;;;;;;6.22;4.05;;;;;;;18.84;87.74;93691.63;4991604;28;20284;-75
2023/08/30 02:34:02;;;;;;;9.77;4.63;;;;;;;18.73;87.78;93691.66;4991575;28;20320;-75
2023/08/30 02:36:30;;;;;;;6.93;4.20;;;;;;;18.64;88.24;93693.31;4991277;28;20206;-75
2023/08/30 02:38:57;;;;;;;9.77;4.35;;;;;;;18.60;88.77;93695.28;4991785;28;20205;-75
2023/08/30 02:41:23;;;;;;;9.77;5.07;;;;;;;18.52;88.84;93697.25;4991280;28;20213;-76
2023/08/30 02:43:50;;;;;;;6.80;4.18;;;;;;;18.56;88.47;93697.25;4991752;28;20213;-74
2023/08/30 02:46:17;;;;;;;5.90;3.90;;;;;;;18.60;88.86;93698.81;4993522;28;20607;-76
2023/08/30 02:48:44;;;;;;;7.95;4.57;;;;;;;18.63;87.11;93687.03;4995851;28;20642;-76
2023/08/30 02:51:10;;;;;;;8.75;4.15;;;;;;;18.67;88.20;93690.53;4995588;28;20545;-77
2023/08/30 02:53:39;;;;;;;7.20;5.00;;;;;;;18.69;87.75;93690.94;4995829;28;20549;-76
2023/08/30 02:56:06;;;;;;;8.95;4.45;;;;;;;18.70;89.87;93686.22;4995436;28;20221;-76
2023/08/30 02:58:32;;;;;;;9.75;4.45;;;;;;;18.52;92.41;93685.50;4995274;28;20264;-76
2023/08/30 03:01:00;;;;;;;9.32;4.60;;;;;;;18.37;92.42;93691.06;4995697;28;20590;-76
2023/08/30 03:03:27;;;;;;;9.07;4.85;;;;;;;18.36;91.75;93681.28;4995267;28;20549;-76
2023/08/30 03:05:54;;;;;;;9.30;4.78;;;;;;;18.39;92.03;93682.47;4995382;28;20223;-77
2023/08/30 03:08:21;;;;;;;5.40;4.03;;;;;;;18.42;92.01;93689.88;4995432;28;20573;-76
2023/08/30 03:10:49;;;;;;;10.63;4.65;;;;;;;18.62;91.18;93695.66;4995170;28;20263;-76
2023/08/30 03:13:16;;;;;;;9.63;4.57;;;;;;;18.59;91.50;93693.72;4994832;28;20241;-76
2023/08/30 03:15:42;;;;;;;7.97;4.88;;;;;;;18.56;90.19;93689.03;4994853;28;20252;-76
2023/08/30 03:18:09;;;;;;;7.53;4.28;;;;;;;18.46;89.89;93693.38;4995010;28;20201;-76
2023/08/30 03:20:36;;;;;;;7.47;5.00;;;;;;;18.37;91.73;93691.06;4994839;28;20414;-76
2023/08/30 03:23:03;;;;;;;7.50;4.60;;;;;;;18.38;91.97;93687.16;4995265;28;20209;-76
2023/08/30 03:25:30;;;;;;;6.30;4.32;;;;;;;18.37;91.68;93691.06;4994784;28;20214;-76
2023/08/30 03:27:58;;;;;;;11.00;5.05;;;;;;;18.31;91.89;93687.19;4994906;28;20296;-76
2023/08/30 03:30:25;;;;;;;9.07;4.65;;;;;;;18.44;92.38;93695.75;4994739;28;20597;-76
2023/08/30 03:32:52;;;;;;;9.18;4.90;;;;;;;18.33;92.45;93690.31;4994818;28;20596;-76
2023/08/30 03:35:21;;;;;;;7.45;4.70;;;;;;;18.23;93.99;93680.19;4994523;28;20228;-76
2023/08/30 03:37:48;;;;;;;9.00;5.15;;;;;;;18.14;93.83;93681.78;4994932;28;20232;-76
2023/08/30 03:40:14;;;;;;;10.38;5.13;;;;;;;18.16;92.72;93669.25;4994785;28;20678;-76
2023/08/30 03:42:41;;;;;;;9.48;4.90;;;;;;;18.16;93.42;93677.47;4994906;28;20663;-76
2023/08/30 03:45:10;;;;;;;8.98;4.72;;;;;;;18.02;94.92;93672.06;4994992;28;20687;-76
2023/08/30 03:47:37;;;;;;;13.63;5.60;;;;;;;17.94;95.57;93673.25;4994352;28;20201;-76
2023/08/30 03:50:04;;;;;;;8.85;5.60;;;;;;;17.96;95.30;93677.16;4994555;28;20296;-76
2023/08/30 03:52:31;;;;;;;11.70;5.57;;;;;;;17.98;95.06;93674.81;4994195;28;20226;-76
2023/08/30 03:54:57;;;;;;;11.38;5.32;;;;;;;17.99;95.35;93681.06;4994577;28;20276;-76
2023/08/30 03:57:24;;;;;;;9.88;5.43;;;;;;;17.98;95.65;93685.00;4994324;28;20664;-76
2023/08/30 03:59:51;;;;;;;11.60;5.35;;;;;;;18.15;95.52;93688.84;4994420;28;20206;-76
2023/08/30 04:02:19;;;;;;;10.00;5.20;;;;;;;18.19;95.66;93698.59;4993812;28;20197;-76
2023/08/30 04:04:48;;;;;;;8.57;5.07;;;;;;;18.25;95.47;93694.28;4994107;28;20239;-76
2023/08/30 04:07:15;;;;;;;13.65;5.40;;;;;;;18.52;93.54;93701.97;4994219;28;20725;-76
2023/08/30 04:09:42;;;;;;;13.82;4.97;;;;;;;18.85;92.17;93693.19;4994400;28;20206;-76
2023/08/30 04:12:09;;;;;;;10.30;5.05;;;;;;;19.21;90.48;93698.38;4994032;28;20235;-76
2023/08/30 04:14:35;;;;;;;12.88;5.50;;;;;;;19.44;88.86;93687.59;4994005;28;20667;-76
2023/08/30 04:17:02;;;;;;;9.45;5.30;;;;;;;19.97;86.77;93689.03;4993823;28;20284;-76
2023/08/30 04:19:30;;;;;;;7.80;4.75;;;;;;;20.60;81.55;93703.22;4993978;28;20210;-76
2023/08/30 04:21:57;;;;;;;16.20;5.78;;;;;;;21.21;79.02;93703.91;4976481;28;20202;-76
2023/08/30 04:24:24;;;;;;;6.45;4.88;;;;;;;22.06;77.83;93702.47;4993762;28;20210;-76
2023/08/30 04:26:51;;;;;;;9.27;4.93;;;;;;;22.56;72.85;93710.50;4993926;28;20205;-76
2023/08/30 04:29:18;;;;;;;9.57;4.75;;;;;;;23.21;73.47;93713.47;4993877;28;20201;-77
2023/08/30 04:31:44;;;;;;;10.48;5.10;;;;;;;23.59;70.41;93716.53;4993650;28;20233;-77
2023/08/30 04:34:11;;;;;;;12.27;5.07;;;;;;;23.95;69.98;93716.38;4994012;28;20201;-76
2023/08/30 04:36:40;;;;;;;12.57;5.25;;;;;;;24.62;68.52;93726.84;4993373;28;20209;-77
2023/08/30 04:39:07;;;;;;;7.55;5.00;;;;;;;24.83;64.46;93734.53;4994110;28;20213;-77
2023/08/30 04:41:34;;;;;;;11.30;5.70;;;;;;;24.18;67.56;93745.06;4993369;28;20255;-77
2023/08/30 04:44:01;;;;;;;13.18;6.95;;;;;;;23.65;68.83;93752.72;4993684;28;20332;-76
2023/08/30 04:46:27;;;;;;;10.45;7.20;;;;;;;22.65;73.12;93760.44;4993313;28;20217;-76
2023/08/30 04:48:54;;;;;;;10.52;6.30;;;;;;;22.17;76.71;93757.44;4993577;28;20276;-76
2023/08/30 04:51:21;;;;;;;10.90;6.47;;;;;;;21.26;81.45;93756.56;4993321;28;20238;-76
2023/08/30 04:53:49;;;;;;;16.52;7.05;;;;;;;20.96;82.37;93750.31;4993240;28;20641;-75
2023/08/30 04:56:17;;;;;;;13.50;6.18;;;;;;;20.33;84.16;93760.91;4993100;28;20205;-77
2023/08/30 04:58:45;;;;;;;11.27;6.80;;;;;;;20.04;87.42;93760.44;4993319;28;20212;-76
2023/08/30 05:01:13;;;;;;;11.45;6.22;;;;;;;19.78;88.31;93765.41;4993665;28;20264;-76
2023/08/30 05:03:39;;;;;;;11.10;6.43;;;;;;;19.69;89.62;93756.84;4992783;28;20202;-75
2023/08/30 05:06:06;;;;;;;16.65;7.30;;;;;;;19.70;89.86;93747.41;4992998;28;20209;-75
2023/08/30 05:08:33;;;;;;;10.30;4.43;;;;;;;19.84;80.84;93760.25;4992089;28;20263;-76
2023/08/30 05:11:02;;;;;;;5.50;2.78;;;;;;;20.24;73.35;93753.16;4993083;28;20216;-75
2023/08/30 05:13:29;;;;;;;5.45;2.58;;;;;;;20.75;71.77;93748.63;4992579;28;20276;-76
2023/08/30 05:15:57;;;;;;;5.90;3.03;;;;;;;21.00;71.03;93749.06;4992839;28;20280;-76
2023/08/30 05:18:24;;;;;;;6.70;2.38;;;;;;;21.04;68.35;93747.06;4992887;28;20729;-75
2023/08/30 05:20:51;;;;;;;11.27;3.00;;;;;;;21.82;66.48;93743.06;4992823;28;20197;-76
2023/08/30 05:23:17;;;;;;;10.30;2.85;;;;;;;22.38;64.54;93746.00;4992427;28;20197;-76
2023/08/30 05:25:44;;;;;;;3.65;2.10;;;;;;;22.95;61.12;93739.31;4992960;28;20217;-75
2023/08/30 05:28:12;;;;;;;6.45;3.10;;;;;;;23.09;60.63;93755.59;4992792;28;20284;-75
2023/08/30 05:30:44;;;;;;;9.85;3.22;;;;;;;22.82;63.74;93757.75;4992707;28;20217;-76
2023/08/30 05:33:11;;;;;;;10.63;2.50;;;;;;;22.76;62.37;93773.22;4992514;28;20210;-76
2023/08/30 05:35:38;;;;;;;6.75;2.80;;;;;;;22.38;63.37;93773.59;4992268;28;20209;-75
2023/08/30 05:38:05;;;;;;;6.82;2.90;;;;;;;23.00;62.38;93766.44;4992671;28;20615;-75
2023/08/30 05:40:31;;;;;;;11.20;3.00;;;;;;;25.06;57.17;93755.66;4992591;28;20202;-76
2023/08/30 05:42:58;;;;;;;4.07;2.67;;;;;;;25.28;53.23;93759.38;4992449;28;20202;-75
2023/08/30 05:45:26;;;;;;;6.00;3.10;;;;;;;24.78;54.42;93749.72;4992486;28;20617;-76
2023/08/30 05:47:53;;;;;;;7.55;2.88;;;;;;;25.21;53.50;93751.25;4992250;28;20265;-76
2023/08/30 05:50:20;;;;;;;7.05;2.70;;;;;;;25.74;52.54;93748.81;4991881;28;20218;-76
2023/08/30 05:52:48;;;;;;;9.25;2.45;;;;;;;27.17;48.52;93745.38;4992381;28;20756;-76
2023/08/30 05:55:15;;;;;;;5.80;2.60;;;;;;;28.82;45.92;93741.78;4992766;28;20806;-76
2023/08/30 05:57:42;;;;;;;5.97;2.90;;;;;;;28.56;45.23;93735.75;4992298;28;20217;-76
2023/08/30 06:00:10;;;;;;;7.88;3.42;;;;;;;28.46;44.88;93738.97;4992113;28;20217;-77
2023/08/30 06:02:38;;;;;;;6.63;3.30;;;;;;;27.38;47.23;93746.56;4992186;28;20737;-76
2023/08/30 06:05:06;;;;;;;4.82;3.15;;;;;;;27.53;46.75;93742.75;4992617;28;20272;-77
2023/08/30 06:07:32;;;;;;;4.70;2.80;;;;;;;28.57;44.15;93745.63;4992024;28;20218;-77
2023/08/30 06:09:59;;;;;;;4.72;2.97;;;;;;;28.40;44.46;93747.19;4992137;28;20221;-77
2023/08/30 06:12:26;;;;;;;4.25;2.97;;;;;;;29.38;43.36;93734.84;4992012;28;20283;-78
2023/08/30 06:14:53;;;;;;;5.80;3.08;;;;;;;29.29;43.18;93726.47;4992238;28;20210;-76
2023/08/30 06:17:21;;;;;;;4.03;2.58;;;;;;;29.58;42.95;93729.50;4991462;28;20249;-76
2023/08/30 06:19:49;;;;;;;6.88;3.10;;;;;;;30.64;41.32;93736.63;4990848;28;20202;-75
2023/08/30 06:22:16;;;;;;;3.75;3.10;;;;;;;31.20;40.46;93737.69;4991716;28;20610;-75
2023/08/30 06:24:43;;;;;;;5.03;2.75;;;;;;;30.53;40.17;93737.16;4992078;28;20570;-77
2023/08/30 06:27:10;;;;;;;4.88;2.78;;;;;;;31.19;39.15;93741.72;4991778;28;20213;-77
2023/08/30 06:29:37;;;;;;;3.70;2.88;;;;;;;31.28;38.83;93741.66;4991587;28;20209;-77
2023/08/30 06:32:04;;;;;;;3.80;2.67;;;;;;;31.62;36.79;93745.75;4991695;28;20305;-77
2023/08/30 06:34:31;;;;;;;4.95;3.00;;;;;;;31.72;36.76;93747.97;4991563;28;20229;-75
2023/08/30 06:36:59;;;;;;;5.82;3.13;;;;;;;32.55;36.00;93749.66;4991556;28;20209;-77
2023/08/30 06:39:26;;;;;;;7.95;3.20;;;;;;;31.25;37.33;93756.59;4991439;28;20205;-77
2023/08/30 06:41:53;;;;;;;6.53;3.25;;;;;;;31.31;37.17;93754.66;4991811;28;20268;-75
2023/08/30 06:44:21;;;;;;;9.00;3.55;;;;;;;30.13;39.35;93759.94;4991605;28;20205;-76
2023/08/30 06:46:48;;;;;;;6.22;3.22;;;;;;;31.20;38.36;93760.06;4991529;28;20205;-77
2023/08/30 06:49:15;;;;;;;4.38;2.60;;;;;;;31.57;37.20;93755.59;4991431;28;20209;-77
2023/08/30 06:51:42;;;;;;;5.07;3.08;;;;;;;31.16;36.96;93749.09;4991159;28;20245;-77
2023/08/30 06:54:10;;;;;;;5.22;3.25;;;;;;;30.23;38.47;93741.88;4991714;28;20579;-76
2023/08/30 06:56:37;;;;;;;6.07;2.90;;;;;;;30.42;39.26;93755.72;4991469;28;20217;-77
2023/08/30 06:59:03;;;;;;;7.85;3.03;;;;;;;31.20;37.83;93754.47;4991610;28;20252;-75
2023/08/30 07:01:30;;;;;;;8.43;3.17;;;;;;;30.82;38.23;93750.47;4991317;28;20201;-77
2023/08/30 07:03:57;;;;;;;5.50;3.10;;;;;;;29.04;41.15;93760.31;4991384;28;20218;-76
2023/08/30 07:06:24;;;;;;;5.00;3.03;;;;;;;28.89;42.64;93751.81;4991614;28;20209;-77
2023/08/30 07:08:51;;;;;;;3.90;2.70;;;;;;;28.45;42.54;93749.34;4991509;28;20217;-76
2023/08/30 07:11:19;;;;;;;6.97;3.33;;;;;;;29.64;40.32;93747.16;4991321;28;20206;-76
2023/08/30 07:13:46;;;;;;;4.47;2.92;;;;;;;29.81;40.09;93750.31;4990942;28;20316;-77
2023/08/30 07:16:12;;;;;;;4.45;2.80;;;;;;;31.83;36.55;93741.03;4991394;28;20236;-77
2023/08/30 07:18:40;;;;;;;7.13;2.85;;;;;;;32.53;35.26;93732.56;4991224;28;20570;-77
2023/08/30 07:21:07;;;;;;;6.50;2.97;;;;;;;31.95;36.19;93739.94;4991684;28;20280;-77
2023/08/30 07:23:34;;;;;;;6.32;3.00;;;;;;;32.17;36.26;93740.22;4991048;28;20680;-77
2023/08/30 07:26:00;;;;;;;4.90;3.03;;;;;;;31.47;37.54;93754.19;4991677;28;20316;-77
2023/08/30 07:28:28;;;;;;;5.80;2.85;;;;;;;31.08;38.58;93748.66;4991313;28;20201;-77
2023/08/30 07:31:03;;;;;;;6.32;3.05;;;;;;;29.65;39.31;93761.88;4991260;28;20210;-76
2023/08/30 07:33:30;;;;;;;6.43;3.10;;;;;;;28.72;41.26;93762.50;4994694;28;20217;-76
2023/08/30 07:35:57;;;;;;;4.78;2.78;;;;;;;27.93;43.69;93764.25;4994736;28;20210;-76
2023/08/30 07:38:24;;;;;;;5.35;3.35;;;;;;;27.81;42.48;93767.94;4994756;28;20228;-77
2023/08/30 07:40:50;;;;;;;4.78;2.92;;;;;;;28.86;41.64;93750.75;4994738;28;20632;-76
2023/08/30 07:43:17;;;;;;;5.93;2.95;;;;;;;28.43;41.42;93751.06;4994727;28;20704;-76
2023/08/30 07:45:45;;;;;;;7.68;3.25;;;;;;;28.44;41.71;93749.78;4994509;28;20209;-76
2023/08/30 07:48:12;;;;;;;6.75;3.22;;;;;;;28.18;42.35;93752.88;4994577;28;20210;-76
2023/08/30 07:50:39;;;;;;;7.50;3.40;;;;;;;28.11;42.26;93747.59;4994227;28;20308;-74
2023/08/30 07:53:05;;;;;;;4.28;3.15;;;;;;;27.19;44.49;93765.97;4994336;28;20303;-76
2023/08/30 07:55:32;;;;;;;5.75;2.70;;;;;;;26.67;44.17;93771.44;4994539;28;20547;-76
2023/08/30 07:57:59;;;;;;;3.58;2.22;;;;;;;28.09;41.39;93752.06;4994658;28;20555;-76
2023/08/30 08:00:26;;;;;;;4.13;2.65;;;;;;;28.56;40.32;93751.69;4994267;28;20248;-76
2023/08/30 08:02:54;;;;;;;4.43;2.53;;;;;;;28.39;40.65;93751.22;4994558;28;20213;-76
2023/08/30 08:05:21;;;;;;;5.10;2.38;;;;;;;27.91;40.46;93750.00;4994430;28;20214;-75
2023/08/30 08:07:52;;;;;;;4.93;2.22;;;;;;;28.22;40.47;93753.50;4993965;28;20228;-76
2023/08/30 08:10:19;;;;;;;6.53;2.50;;;;;;;28.70;40.08;93756.59;4994090;28;20190;-76
2023/08/30 08:12:46;;;;;;;7.15;2.72;;;;;;;28.05;41.46;93752.22;4993875;28;20329;-76
2023/08/30 08:15:13;;;;;;;6.47;2.70;;;;;;;27.72;42.25;93768.69;4993807;28;20205;-76
2023/08/30 08:17:40;;;;;;;9.35;2.67;;;;;;;26.92;43.13;93770.53;4993973;28;20201;-75
2023/08/30 08:20:09;;;;;;;4.25;2.40;;;;;;;26.05;44.09;93779.50;4993923;28;20217;-75
2023/08/30 08:22:35;;;;;;;6.70;2.50;;;;;;;26.60;42.45;93766.13;4993676;28;20496;-75
2023/08/30 08:25:03;;;;;;;5.07;2.50;;;;;;;27.57;41.60;93759.34;4994041;28;20206;-76
2023/08/30 08:27:30;;;;;;;6.28;2.83;;;;;;;27.67;40.68;93769.28;4994014;28;20574;-76
2023/08/30 08:29:57;;;;;;;3.42;2.53;;;;;;;27.13;42.75;93780.91;4993952;28;20336;-76
2023/08/30 08:32:23;;;;;;;5.63;2.33;;;;;;;26.41;43.92;93781.88;4993958;28;20212;-76
2023/08/30 08:34:50;;;;;;;5.10;2.70;;;;;;;26.43;44.79;93784.97;4994053;28;20230;-76
2023/08/30 08:37:18;;;;;;;6.78;2.97;;;;;;;26.95;45.31;93775.97;4994130;28;20212;-75
2023/08/30 08:39:46;;;;;;;5.60;3.33;;;;;;;27.26;43.89;93764.91;4993008;28;20206;-74
2023/08/30 08:42:14;;;;;;;6.90;2.92;;;;;;;27.29;43.14;93772.34;4993672;28;20210;-74
2023/08/30 08:44:43;;;;;;;6.05;2.92;;;;;;;27.45;43.82;93769.31;4975442;28;20685;-74
2023/08/30 08:47:10;;;;;;;6.07;2.95;;;;;;;27.85;42.98;93771.34;4993467;28;20212;-75
2023/08/30 08:49:39;;;;;;;5.50;3.13;;;;;;;28.11;42.29;93764.28;4993287;28;20622;-76
2023/08/30 08:52:07;;;;;;;5.47;2.88;;;;;;;28.69;42.02;93763.44;4993380;28;20207;-75
2023/08/30 08:54:36;;;;;;;6.38;3.50;;;;;;;28.28;43.37;93762.81;4992990;28;20225;-75
2023/08/30 08:57:04;;;;;;;12.30;3.40;;;;;;;27.65;44.52;93768.97;4993585;28;20639;-76
2023/08/30 08:59:31;;;;;;;5.85;3.08;;;;;;;27.67;43.97;93757.38;4993212;28;20602;-74
2023/08/30 09:01:58;;;;;;;7.18;3.30;;;;;;;28.15;43.04;93759.38;4993596;28;20570;-76
2023/08/30 09:04:25;;;;;;;6.25;3.22;;;;;;;27.44;43.99;93769.78;4993550;28;20229;-78
2023/08/30 09:06:53;;;;;;;6.53;3.10;;;;;;;27.36;45.30;93760.91;4993083;28;20247;-76
2023/08/30 09:09:20;;;;;;;7.63;3.58;;;;;;;27.57;44.73;93760.13;4993456;28;20206;-76
2023/08/30 09:11:48;;;;;;;4.38;2.85;;;;;;;27.61;44.90;93753.66;4992685;28;20218;-76
2023/08/30 09:14:15;;;;;;;5.72;3.25;;;;;;;27.37;46.15;93768.03;4993156;28;20256;-76
2023/08/30 09:16:42;;;;;;;4.90;2.97;;;;;;;26.38;46.70;93761.31;4992681;28;20552;-77
2023/08/30 09:19:10;;;;;;;6.47;2.92;;;;;;;26.12;47.72;93755.06;4993085;28;20592;-77
2023/08/30 09:21:37;;;;;;;4.60;2.60;;;;;;;25.94;49.06;93752.13;4992313;28;20618;-76
2023/08/30 09:24:05;;;;;;;7.60;2.85;;;;;;;26.16;48.23;93744.59;4992989;28;20547;-76
2023/08/30 09:26:33;;;;;;;4.93;2.53;;;;;;;26.43;47.64;93752.44;4992530;28;20206;-76
2023/08/30 09:29:06;;;;;;;9.50;3.15;;;;;;;26.79;48.10;93751.91;4975675;28;20534;-76
2023/08/30 09:31:36;;;;;;;10.00;3.65;;;;;;;26.90;46.97;93760.66;4992641;28;20543;-75
2023/08/30 09:34:04;;;;;;;4.18;2.97;;;;;;;26.36;47.05;93757.47;4993199;28;20292;-76
2023/08/30 09:36:37;;;;;;;7.10;3.28;;;;;;;26.54;47.73;93757.59;4992215;28;20206;-76
2023/08/30 09:39:05;;;;;;;6.70;3.55;;;;;;;26.70;46.70;93756.63;4992884;28;20606;-76
2023/08/30 09:41:32;;;;;;;7.00;3.47;;;;;;;27.10;46.08;93754.00;4992218;28;20311;-74
2023/08/30 09:44:00;;;;;;;7.13;3.50;;;;;;;27.81;44.88;93746.44;4992812;28;20670;-76
2023/08/30 09:46:28;;;;;;;6.70;3.47;;;;;;;27.26;45.40;93745.44;4992392;28;20209;-76
2023/08/30 09:48:56;;;;;;;8.10;3.22;;;;;;;28.06;44.87;93737.03;4992375;28;20209;-76
2023/08/30 09:51:27;;;;;;;4.57;3.28;;;;;;;28.57;43.34;93739.28;4992323;28;20209;-76
2023/08/30 09:53:59;;;;;;;6.63;3.80;;;;;;;28.99;42.84;93731.81;4974573;28;20225;-76
2023/08/30 09:56:28;;;;;;;5.85;3.92;;;;;;;29.34;41.80;93723.06;4992687;28;20666;-75
2023/08/30 09:58:55;;;;;;;9.68;3.50;;;;;;;29.46;42.14;93724.91;4991985;28;20232;-76
2023/08/30 10:01:22;;;;;;;7.82;4.05;;;;;;;28.41;42.83;93720.09;4992342;28;20673;-75
2023/08/30 10:03:54;;;;;;;5.95;3.55;;;;;;;28.46;43.31;93725.03;4992113;28;20255;-75
2023/08/30 10:06:21;;;;;;;9.93;4.10;;;;;;;28.69;43.74;93718.06;4992366;28;20193;-75
2023/08/30 10:08:52;;;;;;;8.57;3.85;;;;;;;28.27;43.78;93721.50;4991449;28;20609;-75
2023/08/30 10:11:21;;;;;;;7.28;4.40;;;;;;;27.94;44.15;93721.25;4991852;28;20193;-75
2023/08/30 10:13:49;;;;;;;6.65;3.80;;;;;;;27.57;44.96;93721.16;4991448;28;20288;-76
2023/08/30 10:16:20;;;;;;;5.55;3.78;;;;;;;28.04;43.84;93722.81;4991778;28;20233;-75
2023/08/30 10:18:52;;;;;;;7.13;4.05;;;;;;;28.18;43.93;93719.44;4991789;28;20256;-76
2023/08/30 10:21:20;;;;;;;7.28;4.18;;;;;;;28.81;42.39;93715.13;4991766;28;20201;-76
2023/08/30 10:23:50;;;;;;;6.22;4.05;;;;;;;28.86;42.02;93708.13;4991576;28;20201;-76
2023/08/30 10:26:19;;;;;;;8.10;3.90;;;;;;;28.55;42.13;93713.91;4991912;28;21042;-76
2023/08/30 10:28:46;;;;;;;5.35;3.78;;;;;;;28.51;42.98;93708.47;4991463;28;20209;-76
2023/08/30 10:31:15;;;;;;;5.63;4.32;;;;;;;29.14;42.43;93708.84;4991688;28;20312;-76
2023/08/30 10:33:54;;;;;;;7.43;4.20;;;;;;;29.14;42.40;93708.84;4991477;28;20280;-75
2023/08/30 10:36:24;;;;;;;5.07;3.72;;;;;;;28.47;43.21;93712.66;4991779;28;20217;-75
2023/08/30 10:38:52;;;;;;;8.70;4.40;;;;;;;28.53;43.48;93710.81;4991667;28;20206;-75
2023/08/30 10:41:23;;;;;;;5.60;3.45;;;;;;;28.51;43.28;93707.69;4991655;28;20209;-75
2023/08/30 10:43:52;;;;;;;8.00;4.30;;;;;;;27.94;43.54;93699.75;4991482;28;20336;-75
2023/08/30 10:46:31;;;;;;;6.22;4.40;;;;;;;28.38;42.52;93698.72;4991594;28;20297;-75
2023/08/30 10:49:10;;;;;;;8.43;4.38;;;;;;;27.85;42.31;93701.75;4991721;28;20189;-76
2023/08/30 10:51:38;;;;;;;5.70;4.00;;;;;;;28.09;42.52;93697.16;4991429;28;20236;-76
2023/08/30 10:54:12;;;;;;;7.63;4.10;;;;;;;28.74;42.37;93695.91;4991246;28;20257;-76
2023/08/30 10:56:48;;;;;;;7.75;4.28;;;;;;;28.84;41.41;93697.44;4991727;28;20190;-75
2023/08/30 10:59:18;;;;;;;9.00;4.10;;;;;;;28.80;41.98;93705.22;4991323;28;20284;-76
2023/08/30 11:01:49;;;;;;;8.18;4.80;;;;;;;28.64;41.43;93699.94;4991328;28;20206;-75
2023/08/30 11:04:18;;;;;;;6.90;4.28;;;;;;;28.23;41.88;93696.56;4991733;28;20200;-75
2023/08/30 11:06:46;;;;;;;6.30;4.38;;;;;;;28.22;42.78;93692.22;4992435;28;20214;-76
2023/08/30 11:09:17;;;;;;;8.95;4.30;;;;;;;28.78;41.30;93693.72;4995435;28;20209;-76
2023/08/30 11:11:45;;;;;;;7.25;4.13;;;;;;;28.74;42.98;93695.91;4995464;28;20625;-75
2023/08/30 11:14:11;;;;;;;10.00;4.47;;;;;;;28.16;42.51;93687.69;4995026;28;20236;-75
2023/08/30 11:16:39;;;;;;;9.50;4.47;;;;;;;27.69;42.96;93688.13;4994795;28;20237;-76
2023/08/30 11:19:07;;;;;;;9.30;4.70;;;;;;;28.44;42.40;93677.34;4995919;28;20210;-75
2023/08/30 11:21:37;;;;;;;6.15;4.03;;;;;;;28.93;41.83;93672.34;4995193;28;20546;-76
2023/08/30 11:24:05;;;;;;;7.63;4.40;;;;;;;28.98;39.75;93674.50;4995256;28;20551;-74
2023/08/30 11:26:32;;;;;;;6.00;4.03;;;;;;;29.02;39.88;93668.75;4995474;28;20614;-74
2023/08/30 11:29:04;;;;;;;8.52;4.63;;;;;;;29.29;38.87;93667.88;4994860;28;20205;-76
2023/08/30 11:31:31;;;;;;;7.97;4.45;;;;;;;29.58;38.60;93658.94;4995267;28;20241;-76
2023/08/30 11:33:59;;;;;;;6.90;4.57;;;;;;;28.47;39.27;93656.91;4994690;28;20260;-75